Cross Plains, Texas
Current Conditions -  °F | °C
As of 6:15 PM on Friday 24 Oct 2014 (Local Time) from KCOM Reporting Station
Clear Clear  
Wind Chill: 85°   Ceiling: Unl
Heat Index: 85°   Visibility: 10mi
Dew Point: 56°   Wind: 3mph
Humidity: 37%   Direction: 180°S
Pressure: 30.09"   Gusts: NA
Location:  32.13°N, 99.17°W
Report Text: KCOM 242315Z AUTO 18003KT 10SM CLR 30/13 A3009 RMK AO2 T02950133
Loading
Personal Weather Stations






























Interactive Weather Map
Tropical Storm Tracking
New forecast layout! Learn more

10-Day Weather Forecast

Advertisements
Track Severe Weather on mobile